createdAt,value
2018-12-09T00:00:31.658Z,19.13
2018-12-09T00:01:31.454Z,19.13
2018-12-09T00:02:31.919Z,19.11
2018-12-09T00:03:31.681Z,19.13
2018-12-09T00:04:31.525Z,19.12
2018-12-09T00:05:31.718Z,19.12
2018-12-09T00:06:31.960Z,19.11
2018-12-09T00:07:31.588Z,19.1
2018-12-09T00:08:31.549Z,19.1
2018-12-09T00:09:31.934Z,19.1
2018-12-09T00:10:31.720Z,19.1
2018-12-09T00:11:31.566Z,19.09
2018-12-09T00:12:31.721Z,19.09
2018-12-09T00:13:31.604Z,19.09
2018-12-09T00:14:31.628Z,19.09
2018-12-09T00:15:31.497Z,19.09
2018-12-09T00:16:31.889Z,19.09
2018-12-09T00:17:31.831Z,19.08
2018-12-09T00:18:31.852Z,19.08
2018-12-09T00:19:32.031Z,19.08
2018-12-09T00:20:31.979Z,19.07
2018-12-09T00:21:31.802Z,19.07
2018-12-09T00:22:31.524Z,19.07
2018-12-09T00:23:31.550Z,19.05
2018-12-09T00:24:31.619Z,19.05
2018-12-09T00:25:31.795Z,19.06
2018-12-09T00:26:31.426Z,19.04
2018-12-09T00:27:31.811Z,19.05
2018-12-09T00:28:31.902Z,19.04
2018-12-09T00:29:31.718Z,19.05
2018-12-09T00:30:31.509Z,19.05
2018-12-09T00:31:32.078Z,19.04
2018-12-09T00:32:31.933Z,19.03
2018-12-09T00:33:31.733Z,19.04
2018-12-09T00:34:31.577Z,19.03
2018-12-09T00:35:31.755Z,19.02
2018-12-09T00:36:32.043Z,19.03
2018-12-09T00:37:32.072Z,19.03
2018-12-09T00:38:31.749Z,19.03
2018-12-09T00:39:31.771Z,19.02
2018-12-09T00:40:31.886Z,19.02
2018-12-09T00:41:31.685Z,19
2018-12-09T00:42:31.606Z,19
2018-12-09T00:43:31.995Z,19.01
2018-12-09T00:44:31.811Z,19
2018-12-09T00:45:32.013Z,19
2018-12-09T00:46:32.132Z,18.99
2018-12-09T00:47:31.758Z,18.99
2018-12-09T00:48:31.433Z,18.99
2018-12-09T00:49:31.645Z,18.98
2018-12-09T00:50:31.582Z,18.98
2018-12-09T00:51:31.644Z,18.98
2018-12-09T00:52:31.575Z,18.97
2018-12-09T00:53:31.362Z,18.97
2018-12-09T00:54:31.844Z,18.97
2018-12-09T00:55:31.500Z,18.97
2018-12-09T00:56:31.700Z,18.97
2018-12-09T00:57:31.662Z,18.97
2018-12-09T00:58:31.743Z,18.96
2018-12-09T00:59:31.823Z,18.96
2018-12-09T01:00:31.708Z,18.96
2018-12-09T01:01:32.288Z,18.96
2018-12-09T01:02:31.606Z,18.95
2018-12-09T01:03:31.722Z,18.96
2018-12-09T01:04:31.753Z,18.95
2018-12-09T01:05:31.664Z,18.95
2018-12-09T01:06:31.906Z,18.94
2018-12-09T01:07:32.083Z,18.94
2018-12-09T01:08:32.396Z,18.94
2018-12-09T01:09:31.496Z,18.94
2018-12-09T01:10:32.000Z,18.93
2018-12-09T01:11:31.647Z,18.93
2018-12-09T01:12:31.968Z,18.93
2018-12-09T01:13:31.646Z,18.93
2018-12-09T01:14:31.636Z,18.92
2018-12-09T01:15:31.913Z,18.91
2018-12-09T01:16:31.378Z,18.91
2018-12-09T01:17:31.858Z,18.91
2018-12-09T01:18:32.010Z,18.91
2018-12-09T01:19:32.057Z,18.9
2018-12-09T01:20:31.575Z,18.9
2018-12-09T01:21:31.856Z,18.9
2018-12-09T01:22:31.823Z,18.9
2018-12-09T01:23:31.905Z,18.9
2018-12-09T01:24:31.438Z,18.9
2018-12-09T01:25:31.826Z,18.89
2018-12-09T01:26:31.753Z,18.89
2018-12-09T01:27:31.880Z,18.88
2018-12-09T01:28:31.677Z,18.89
2018-12-09T01:29:33.452Z,18.88
2018-12-09T01:30:31.695Z,18.88
2018-12-09T01:31:31.739Z,18.88
2018-12-09T01:32:31.974Z,18.88
2018-12-09T01:33:31.644Z,18.87
2018-12-09T01:34:31.459Z,18.87
2018-12-09T01:35:31.745Z,18.87
2018-12-09T01:36:32.041Z,18.86
2018-12-09T01:37:31.566Z,18.86
2018-12-09T01:38:31.443Z,18.85
2018-12-09T01:39:31.932Z,18.85
2018-12-09T01:40:31.942Z,18.84
2018-12-09T01:41:31.475Z,18.85
2018-12-09T01:42:31.791Z,18.85
2018-12-09T01:43:32.326Z,18.84
2018-12-09T01:44:31.609Z,18.85
2018-12-09T01:45:31.387Z,18.84
2018-12-09T01:46:31.881Z,18.84
2018-12-09T01:47:31.668Z,18.84
2018-12-09T01:48:32.586Z,18.84
2018-12-09T01:49:32.082Z,18.83
2018-12-09T01:50:31.521Z,18.83
2018-12-09T01:51:31.892Z,18.83
2018-12-09T01:52:31.469Z,18.82
2018-12-09T01:53:31.819Z,18.82
2018-12-09T01:54:31.651Z,18.82
2018-12-09T01:55:31.935Z,18.81
2018-12-09T01:56:31.952Z,18.82
2018-12-09T01:57:31.924Z,18.82
2018-12-09T01:58:33.554Z,18.81
2018-12-09T01:59:31.883Z,18.81
2018-12-09T02:00:31.537Z,18.8
2018-12-09T02:01:31.431Z,18.8
2018-12-09T02:02:31.493Z,18.8
2018-12-09T02:03:31.626Z,18.79
2018-12-09T02:04:31.820Z,18.79
2018-12-09T02:05:32.014Z,18.79
2018-12-09T02:06:31.887Z,18.79
2018-12-09T02:07:31.909Z,18.78
2018-12-09T02:08:33.420Z,18.79
2018-12-09T02:09:31.754Z,18.8
2018-12-09T02:10:32.361Z,18.79
2018-12-09T02:11:31.431Z,18.79
2018-12-09T02:12:31.861Z,18.78
2018-12-09T02:13:31.678Z,18.78
2018-12-09T02:14:31.553Z,18.78
2018-12-09T02:15:31.676Z,18.79
2018-12-09T02:16:31.336Z,18.78
2018-12-09T02:17:31.794Z,18.77
2018-12-09T02:18:33.084Z,18.77
2018-12-09T02:19:31.998Z,18.77
2018-12-09T02:20:31.973Z,18.76
2018-12-09T02:21:31.572Z,18.76
2018-12-09T02:22:31.573Z,18.76
2018-12-09T02:23:32.483Z,18.75
2018-12-09T02:24:31.599Z,18.76
2018-12-09T02:25:31.727Z,18.74
2018-12-09T02:26:31.461Z,18.75
2018-12-09T02:27:31.827Z,18.75
2018-12-09T02:28:33.360Z,18.75
2018-12-09T02:29:31.981Z,18.74
2018-12-09T02:30:31.940Z,18.74
2018-12-09T02:31:31.593Z,18.74
2018-12-09T02:32:31.659Z,18.73
2018-12-09T02:33:31.465Z,18.74
2018-12-09T02:34:31.815Z,18.73
2018-12-09T02:35:31.665Z,18.72
2018-12-09T02:36:31.869Z,18.72
2018-12-09T02:37:31.512Z,18.72
2018-12-09T02:38:33.336Z,18.72
2018-12-09T02:39:31.821Z,18.72
2018-12-09T02:40:31.449Z,18.72
2018-12-09T02:41:31.864Z,18.72
2018-12-09T02:42:31.513Z,18.72
2018-12-09T02:43:31.815Z,18.71
2018-12-09T02:44:31.467Z,18.71
2018-12-09T02:45:31.587Z,18.71
2018-12-09T02:46:31.517Z,18.72
2018-12-09T02:47:31.630Z,18.71
2018-12-09T02:48:31.647Z,18.71
2018-12-09T02:49:31.501Z,18.7
2018-12-09T02:50:32.030Z,18.69
2018-12-09T02:51:31.706Z,18.69
2018-12-09T02:52:32.147Z,18.69
2018-12-09T02:53:31.989Z,18.69
2018-12-09T02:54:31.906Z,18.69
2018-12-09T02:55:31.339Z,18.68
2018-12-09T02:56:31.895Z,18.69
2018-12-09T02:57:32.416Z,18.68
2018-12-09T02:58:32.288Z,18.68
2018-12-09T02:59:32.143Z,18.68
2018-12-09T03:00:32.071Z,18.68
2018-12-09T03:01:32.095Z,18.68
2018-12-09T03:02:31.733Z,18.66
2018-12-09T03:03:31.582Z,18.66
2018-12-09T03:04:31.393Z,18.66
2018-12-09T03:05:31.885Z,18.66
2018-12-09T03:06:32.036Z,18.66
2018-12-09T03:07:33.025Z,18.66
2018-12-09T03:08:31.502Z,18.66
2018-12-09T03:09:31.916Z,18.66
2018-12-09T03:10:31.765Z,18.66
2018-12-09T03:11:31.551Z,18.65
2018-12-09T03:12:31.626Z,18.64
2018-12-09T03:13:31.712Z,18.64
2018-12-09T03:14:32.188Z,18.64
2018-12-09T03:15:31.451Z,18.63
2018-12-09T03:16:32.125Z,18.64
2018-12-09T03:17:33.610Z,18.63
2018-12-09T03:18:31.823Z,18.63
2018-12-09T03:19:31.830Z,18.63
2018-12-09T03:20:31.451Z,18.64
2018-12-09T03:21:31.845Z,18.63
2018-12-09T03:22:31.748Z,18.63
2018-12-09T03:23:32.039Z,18.62
2018-12-09T03:24:31.417Z,18.62
2018-12-09T03:25:31.590Z,18.62
2018-12-09T03:26:32.585Z,18.62
2018-12-09T03:27:31.790Z,18.62
2018-12-09T03:28:31.881Z,18.61
2018-12-09T03:29:31.422Z,18.62
2018-12-09T03:30:32.026Z,18.61
2018-12-09T03:31:31.575Z,18.6
2018-12-09T03:32:31.572Z,18.61
2018-12-09T03:33:32.058Z,18.61
2018-12-09T03:34:31.538Z,18.6
2018-12-09T03:35:31.574Z,18.6
2018-12-09T03:36:33.131Z,18.6
2018-12-09T03:37:31.895Z,18.6
2018-12-09T03:38:31.880Z,18.6
2018-12-09T03:39:31.575Z,18.59
2018-12-09T03:40:31.362Z,18.59
2018-12-09T03:41:31.563Z,18.58
2018-12-09T03:42:31.670Z,18.59
2018-12-09T03:43:31.525Z,18.59
2018-12-09T03:44:32.124Z,18.58
2018-12-09T03:45:31.978Z,18.58
2018-12-09T03:46:31.630Z,18.58
2018-12-09T03:47:31.824Z,18.58
2018-12-09T03:48:31.817Z,18.58
2018-12-09T03:49:31.850Z,18.58
2018-12-09T03:50:31.456Z,18.58
2018-12-09T03:51:31.817Z,18.57
2018-12-09T03:52:31.649Z,18.57
2018-12-09T03:53:31.781Z,18.56
2018-12-09T03:54:31.946Z,18.57
2018-12-09T03:55:33.369Z,18.56
2018-12-09T03:56:31.958Z,18.56
2018-12-09T03:57:31.569Z,18.56
2018-12-09T03:58:31.503Z,18.56
2018-12-09T03:59:31.465Z,18.56
2018-12-09T04:00:31.636Z,18.55
2018-12-09T04:01:32.023Z,18.55
2018-12-09T04:02:31.476Z,18.55
2018-12-09T04:03:31.592Z,18.54
2018-12-09T04:04:32.616Z,18.55
2018-12-09T04:05:31.755Z,18.54
2018-12-09T04:06:31.478Z,18.54
2018-12-09T04:07:31.624Z,18.54
2018-12-09T04:08:31.358Z,18.53
2018-12-09T04:09:31.607Z,18.54
2018-12-09T04:10:31.621Z,18.54
2018-12-09T04:11:31.435Z,18.52
2018-12-09T04:12:32.113Z,18.53
2018-12-09T04:13:31.655Z,18.53
2018-12-09T04:14:33.403Z,18.53
2018-12-09T04:15:31.667Z,18.52
2018-12-09T04:16:31.993Z,18.52
2018-12-09T04:17:31.635Z,18.52
2018-12-09T04:18:31.521Z,18.51
2018-12-09T04:19:31.650Z,18.52
2018-12-09T04:20:31.466Z,18.52
2018-12-09T04:21:31.592Z,18.52
2018-12-09T04:22:32.182Z,18.52
2018-12-09T04:23:33.678Z,18.52
2018-12-09T04:24:31.979Z,18.51
2018-12-09T04:25:31.571Z,18.51
2018-12-09T04:26:32.315Z,18.5
2018-12-09T04:27:31.758Z,18.5
2018-12-09T04:28:31.814Z,18.5
2018-12-09T04:29:32.169Z,18.5
2018-12-09T04:30:31.552Z,18.51
2018-12-09T04:31:31.586Z,18.51
2018-12-09T04:32:31.843Z,18.49
2018-12-09T04:33:31.546Z,18.49
2018-12-09T04:34:31.653Z,18.49
2018-12-09T04:35:31.500Z,18.49
2018-12-09T04:36:31.938Z,18.49
2018-12-09T04:37:31.576Z,18.5
2018-12-09T04:38:32.091Z,18.51
2018-12-09T04:39:31.508Z,18.51
2018-12-09T04:40:31.736Z,18.52
2018-12-09T04:41:31.474Z,18.51
2018-12-09T04:42:33.402Z,18.52
2018-12-09T04:43:31.366Z,18.52
2018-12-09T04:44:31.499Z,18.53
2018-12-09T04:45:31.546Z,18.53
2018-12-09T04:46:31.907Z,18.53
2018-12-09T04:47:32.053Z,18.54
2018-12-09T04:48:31.506Z,18.54
2018-12-09T04:49:31.498Z,18.54
2018-12-09T04:50:31.761Z,18.55
2018-12-09T04:51:31.415Z,18.57
2018-12-09T04:52:33.677Z,18.58
2018-12-09T04:53:31.354Z,18.59
2018-12-09T04:54:31.451Z,18.6
2018-12-09T04:55:31.702Z,18.62
2018-12-09T04:56:31.540Z,18.63
2018-12-09T04:57:31.640Z,18.64
2018-12-09T04:58:31.744Z,18.66
2018-12-09T04:59:31.459Z,18.67
2018-12-09T05:00:31.342Z,18.69
2018-12-09T05:01:32.615Z,18.7
2018-12-09T05:02:31.380Z,18.72
2018-12-09T05:03:31.582Z,18.73
2018-12-09T05:04:31.828Z,18.75
2018-12-09T05:05:31.551Z,18.77
2018-12-09T05:06:31.624Z,18.78
2018-12-09T05:07:31.843Z,18.79
2018-12-09T05:08:31.740Z,18.81
2018-12-09T05:09:31.849Z,18.84
2018-12-09T05:10:31.499Z,18.84
2018-12-09T05:11:32.007Z,18.86
2018-12-09T05:12:31.770Z,18.87
2018-12-09T05:13:32.006Z,18.89
2018-12-09T05:14:31.913Z,18.9
2018-12-09T05:15:31.910Z,18.91
2018-12-09T05:16:31.715Z,18.93
2018-12-09T05:17:31.563Z,18.95
2018-12-09T05:18:31.934Z,18.96
2018-12-09T05:19:31.513Z,18.97
2018-12-09T05:20:33.266Z,18.99
2018-12-09T05:21:31.447Z,19
2018-12-09T05:22:31.531Z,19.01
2018-12-09T05:23:31.910Z,19.03
2018-12-09T05:24:31.741Z,19.03
2018-12-09T05:25:31.689Z,19.05
2018-12-09T05:26:31.821Z,19.07
2018-12-09T05:27:31.491Z,19.08
2018-12-09T05:28:31.306Z,19.09
2018-12-09T05:29:32.714Z,19.1
2018-12-09T05:30:31.922Z,19.12
2018-12-09T05:31:31.583Z,19.13
2018-12-09T05:32:31.784Z,19.14
2018-12-09T05:33:31.438Z,19.15
2018-12-09T05:34:31.589Z,19.16
2018-12-09T05:35:31.383Z,19.17
2018-12-09T05:36:31.648Z,19.18
2018-12-09T05:37:32.240Z,19.19
2018-12-09T05:38:31.682Z,19.21
2018-12-09T05:39:31.380Z,19.21
2018-12-09T05:40:31.563Z,19.23
2018-12-09T05:41:31.513Z,19.24
2018-12-09T05:42:31.452Z,19.25
2018-12-09T05:43:32.222Z,19.27
2018-12-09T05:44:31.724Z,19.27
2018-12-09T05:45:31.504Z,19.29
2018-12-09T05:46:31.469Z,19.3
2018-12-09T05:47:31.554Z,19.31
2018-12-09T05:48:33.465Z,19.32
2018-12-09T05:49:31.354Z,19.33
2018-12-09T05:50:31.622Z,19.34
2018-12-09T05:51:31.470Z,19.36
2018-12-09T05:52:31.923Z,19.37
2018-12-09T05:53:31.485Z,19.38
2018-12-09T05:54:31.719Z,19.39
2018-12-09T05:55:31.465Z,19.39
2018-12-09T05:56:31.346Z,19.4
2018-12-09T05:57:33.733Z,19.41
2018-12-09T05:58:31.407Z,19.43
2018-12-09T05:59:31.944Z,19.44
2018-12-09T06:00:31.551Z,19.45
2018-12-09T06:01:31.529Z,19.45
2018-12-09T06:02:31.912Z,19.46
2018-12-09T06:03:31.378Z,19.46
2018-12-09T06:04:31.775Z,19.47
2018-12-09T06:05:31.665Z,19.47
2018-12-09T06:06:32.541Z,19.48
2018-12-09T06:07:31.726Z,19.48
2018-12-09T06:08:31.545Z,19.49
2018-12-09T06:09:31.551Z,19.49
2018-12-09T06:10:31.456Z,19.5
2018-12-09T06:11:31.991Z,19.51
2018-12-09T06:12:31.379Z,19.51
2018-12-09T06:13:31.315Z,19.51
2018-12-09T06:14:31.746Z,19.51
2018-12-09T06:15:31.543Z,19.51
2018-12-09T06:16:31.370Z,19.52
2018-12-09T06:17:31.871Z,19.52
2018-12-09T06:18:31.561Z,19.52
2018-12-09T06:19:31.359Z,19.53
2018-12-09T06:20:31.906Z,19.53
2018-12-09T06:21:31.297Z,19.53
2018-12-09T06:22:31.601Z,19.54
2018-12-09T06:23:31.672Z,19.54
2018-12-09T06:24:31.469Z,19.54
2018-12-09T06:25:33.528Z,19.54
2018-12-09T06:26:31.823Z,19.55
2018-12-09T06:27:31.816Z,19.56
2018-12-09T06:28:31.303Z,19.56
2018-12-09T06:29:32.157Z,19.56
2018-12-09T06:30:31.431Z,19.56
2018-12-09T06:31:31.641Z,19.57
2018-12-09T06:32:31.571Z,19.56
2018-12-09T06:33:31.604Z,19.57
2018-12-09T06:34:33.285Z,19.57
2018-12-09T06:35:31.386Z,19.57
2018-12-09T06:36:31.797Z,19.57
2018-12-09T06:37:31.818Z,19.57
2018-12-09T06:38:31.799Z,19.57
2018-12-09T06:39:31.844Z,19.57
2018-12-09T06:40:31.922Z,19.57
2018-12-09T06:41:31.521Z,19.58
2018-12-09T06:42:31.968Z,19.58
2018-12-09T06:43:31.817Z,19.58
2018-12-09T06:44:31.763Z,19.59
2018-12-09T06:45:31.852Z,19.59
2018-12-09T06:46:31.579Z,19.59
2018-12-09T06:47:31.951Z,19.59
2018-12-09T06:48:31.856Z,19.61
2018-12-09T06:49:31.518Z,19.62
2018-12-09T06:50:31.911Z,19.62
2018-12-09T06:51:32.203Z,19.63
2018-12-09T06:52:31.472Z,19.63
2018-12-09T06:53:31.891Z,19.63
2018-12-09T06:54:31.471Z,19.63
2018-12-09T06:55:31.685Z,19.65
2018-12-09T06:56:31.331Z,19.66
2018-12-09T06:57:31.970Z,19.67
2018-12-09T06:58:31.670Z,19.67
2018-12-09T06:59:31.876Z,19.68
2018-12-09T07:00:31.677Z,19.69
2018-12-09T07:01:32.863Z,19.69
2018-12-09T07:02:31.803Z,19.7
2018-12-09T07:03:31.673Z,19.7
2018-12-09T07:04:31.626Z,19.71
2018-12-09T07:05:31.592Z,19.72
2018-12-09T07:06:31.719Z,19.72
2018-12-09T07:07:31.480Z,19.73
2018-12-09T07:08:31.656Z,19.74
2018-12-09T07:09:31.507Z,19.75
2018-12-09T07:10:34.059Z,19.75
2018-12-09T07:11:31.559Z,19.75
2018-12-09T07:12:31.252Z,19.75
2018-12-09T07:13:31.654Z,19.77
2018-12-09T07:14:31.875Z,19.77
2018-12-09T07:15:31.462Z,19.77
2018-12-09T07:16:31.318Z,19.77
2018-12-09T07:17:31.458Z,19.78
2018-12-09T07:18:31.969Z,19.79
2018-12-09T07:19:32.895Z,19.79
2018-12-09T07:20:31.577Z,19.8
2018-12-09T07:21:31.281Z,19.8
2018-12-09T07:22:31.527Z,19.81
2018-12-09T07:23:31.496Z,19.81
2018-12-09T07:24:31.370Z,19.81
2018-12-09T07:25:31.345Z,19.81
2018-12-09T07:26:31.854Z,19.81
2018-12-09T07:27:31.471Z,19.82
2018-12-09T07:28:31.986Z,19.83
2018-12-09T07:29:31.533Z,19.83
2018-12-09T07:30:31.275Z,19.83
2018-12-09T07:31:31.762Z,19.84
2018-12-09T07:32:32.101Z,19.85
2018-12-09T07:33:31.417Z,19.85
2018-12-09T07:34:31.412Z,19.84
2018-12-09T07:35:31.296Z,19.84
2018-12-09T07:36:31.451Z,19.85
2018-12-09T07:37:31.592Z,19.85
2018-12-09T07:38:31.622Z,19.86
2018-12-09T07:39:31.913Z,19.86
2018-12-09T07:40:31.854Z,19.87
2018-12-09T07:41:31.717Z,19.86
2018-12-09T07:42:31.202Z,19.86
2018-12-09T07:43:31.279Z,19.87
2018-12-09T07:44:31.888Z,19.88
2018-12-09T07:45:31.353Z,19.88
2018-12-09T07:46:31.675Z,19.88
2018-12-09T07:47:31.509Z,19.88
2018-12-09T07:48:31.716Z,19.88
2018-12-09T07:49:31.321Z,19.88
2018-12-09T07:50:31.521Z,19.88
2018-12-09T07:51:31.482Z,19.88
2018-12-09T07:52:31.195Z,19.88
2018-12-09T07:53:31.806Z,19.89
2018-12-09T07:54:31.410Z,19.89
2018-12-09T07:55:31.532Z,19.9
2018-12-09T07:56:31.638Z,19.91
2018-12-09T07:57:31.763Z,19.91
2018-12-09T07:58:31.379Z,19.92
2018-12-09T07:59:31.371Z,19.92
2018-12-09T08:00:31.771Z,19.92
2018-12-09T08:01:31.769Z,19.92
2018-12-09T08:02:31.626Z,19.92
2018-12-09T08:03:31.322Z,19.93
2018-12-09T08:04:31.475Z,19.94
2018-12-09T08:05:31.721Z,19.94
2018-12-09T08:06:31.294Z,19.94
2018-12-09T08:07:31.295Z,19.94
2018-12-09T08:08:31.471Z,19.95
2018-12-09T08:09:32.012Z,19.95
2018-12-09T08:10:31.366Z,19.96
2018-12-09T08:11:31.784Z,19.96
2018-12-09T08:12:31.352Z,19.97
2018-12-09T08:13:31.407Z,19.98
2018-12-09T08:14:31.290Z,19.98
2018-12-09T08:15:32.338Z,19.98
2018-12-09T08:16:31.344Z,19.97
2018-12-09T08:17:31.487Z,19.98
2018-12-09T08:18:31.857Z,19.99
2018-12-09T08:19:31.689Z,20
2018-12-09T08:20:31.466Z,19.99
2018-12-09T08:21:31.309Z,19.99
2018-12-09T08:22:31.999Z,19.99
2018-12-09T08:23:31.357Z,20
2018-12-09T08:24:31.517Z,19.99
2018-12-09T08:25:31.233Z,20
2018-12-09T08:26:31.839Z,20
2018-12-09T08:27:31.583Z,20
2018-12-09T08:28:31.320Z,20
2018-12-09T08:29:31.550Z,20
2018-12-09T08:30:31.538Z,20
2018-12-09T08:31:31.564Z,20
2018-12-09T08:32:31.552Z,20.03
2018-12-09T08:33:31.787Z,20.01
2018-12-09T08:34:31.729Z,20.01
2018-12-09T08:35:31.768Z,20.01
2018-12-09T08:36:31.704Z,20.01
2018-12-09T08:37:32.178Z,20.01
2018-12-09T08:38:31.742Z,20.02
2018-12-09T08:39:31.505Z,20.01
2018-12-09T08:40:31.809Z,20
2018-12-09T08:41:31.783Z,20
2018-12-09T08:42:31.314Z,20.02
2018-12-09T08:43:31.482Z,20.02
2018-12-09T08:44:31.439Z,20.06
2018-12-09T08:45:31.487Z,20.08
2018-12-09T08:46:31.712Z,20.09
2018-12-09T08:47:31.436Z,20.08
2018-12-09T08:48:31.700Z,20.08
2018-12-09T08:49:31.362Z,20.09
2018-12-09T08:50:31.549Z,20.1
2018-12-09T08:51:31.593Z,20.1
2018-12-09T08:52:32.017Z,20.12
2018-12-09T08:53:31.647Z,20.14
2018-12-09T08:54:31.518Z,20.14
2018-12-09T08:55:31.234Z,20.14
2018-12-09T08:56:31.571Z,20.16
2018-12-09T08:57:31.468Z,20.17
2018-12-09T08:58:31.345Z,20.17
2018-12-09T08:59:31.393Z,20.18
2018-12-09T09:00:31.238Z,20.18
2018-12-09T09:01:31.481Z,20.22
2018-12-09T09:02:31.357Z,20.23
2018-12-09T09:03:31.449Z,20.25
2018-12-09T09:04:32.613Z,20.28
2018-12-09T09:05:31.331Z,20.29
2018-12-09T09:06:31.417Z,20.32
2018-12-09T09:07:31.299Z,20.35
2018-12-09T09:08:31.457Z,20.35
2018-12-09T09:09:31.290Z,20.34
2018-12-09T09:10:31.357Z,20.33
2018-12-09T09:11:31.743Z,20.35
2018-12-09T09:12:31.298Z,20.35
2018-12-09T09:13:31.383Z,20.35
2018-12-09T09:14:31.272Z,20.35
2018-12-09T09:15:31.897Z,20.35
2018-12-09T09:16:31.451Z,20.38
2018-12-09T09:17:31.339Z,20.41
2018-12-09T09:18:31.470Z,20.41
2018-12-09T09:19:31.349Z,20.41
2018-12-09T09:20:31.552Z,20.41
2018-12-09T09:21:31.314Z,20.41
2018-12-09T09:22:31.289Z,20.41
2018-12-09T09:23:31.418Z,20.41
2018-12-09T09:24:31.931Z,20.41
2018-12-09T09:25:31.546Z,20.45
2018-12-09T09:26:31.439Z,20.42
2018-12-09T09:27:31.985Z,20.43
2018-12-09T09:28:31.306Z,20.41
2018-12-09T09:29:32.296Z,20.41
2018-12-09T09:30:31.823Z,20.4
2018-12-09T09:31:31.323Z,20.41
2018-12-09T09:32:31.781Z,20.41
2018-12-09T09:33:31.381Z,20.42
2018-12-09T09:34:31.417Z,20.42
2018-12-09T09:35:31.537Z,20.41
2018-12-09T09:36:31.372Z,20.42
2018-12-09T09:37:31.764Z,20.43
2018-12-09T09:38:31.349Z,20.44
2018-12-09T09:39:31.528Z,20.45
2018-12-09T09:40:31.734Z,20.44
2018-12-09T09:41:31.424Z,20.46
2018-12-09T09:42:31.323Z,20.45
2018-12-09T09:43:31.476Z,20.46
2018-12-09T09:44:31.191Z,20.46
2018-12-09T09:45:31.258Z,20.47
2018-12-09T09:46:31.379Z,20.47
2018-12-09T09:47:31.356Z,20.47
2018-12-09T09:48:31.732Z,20.48
2018-12-09T09:49:31.717Z,20.5
2018-12-09T09:50:31.749Z,20.51
2018-12-09T09:51:31.325Z,20.51
2018-12-09T09:52:31.495Z,20.52
2018-12-09T09:53:31.984Z,20.52
2018-12-09T09:54:31.345Z,20.52
2018-12-09T09:55:31.801Z,20.53
2018-12-09T09:56:31.481Z,20.53
2018-12-09T09:57:31.764Z,20.53
2018-12-09T09:58:31.393Z,20.53
2018-12-09T09:59:31.674Z,20.54
2018-12-09T10:00:31.327Z,20.56
2018-12-09T10:01:31.869Z,20.56
2018-12-09T10:02:31.429Z,20.56
2018-12-09T10:03:31.227Z,20.58
2018-12-09T10:04:31.780Z,20.58
2018-12-09T10:05:31.393Z,20.59
2018-12-09T10:06:31.539Z,20.59
2018-12-09T10:07:31.337Z,20.59
2018-12-09T10:08:31.767Z,20.59
2018-12-09T10:09:31.416Z,20.6
2018-12-09T10:10:31.637Z,20.61
2018-12-09T10:11:31.897Z,20.61
2018-12-09T10:12:31.388Z,20.6
2018-12-09T10:13:31.452Z,20.61
2018-12-09T10:14:31.719Z,20.61
2018-12-09T10:15:31.786Z,20.61
2018-12-09T10:16:31.255Z,20.63
2018-12-09T10:17:31.823Z,20.63
2018-12-09T10:18:31.913Z,20.64
2018-12-09T10:19:31.440Z,20.64
2018-12-09T10:20:31.558Z,20.64
2018-12-09T10:21:31.483Z,20.65
2018-12-09T10:22:31.392Z,20.65
2018-12-09T10:23:31.246Z,20.65
2018-12-09T10:24:31.508Z,20.65
2018-12-09T10:25:31.586Z,20.65
2018-12-09T10:26:36.955Z,20.65
2018-12-09T10:27:31.708Z,20.65
2018-12-09T10:28:31.655Z,20.65
2018-12-09T10:29:31.367Z,20.67
2018-12-09T10:30:31.190Z,20.69
2018-12-09T10:31:31.296Z,20.67
2018-12-09T10:32:31.427Z,20.67
2018-12-09T10:33:31.247Z,20.67
2018-12-09T10:34:39.155Z,20.66
2018-12-09T10:35:31.456Z,20.66
2018-12-09T10:36:31.314Z,20.65
2018-12-09T10:37:31.776Z,20.66
2018-12-09T10:38:31.225Z,20.66
2018-12-09T10:39:31.207Z,20.65
2018-12-09T10:40:31.222Z,20.66
2018-12-09T10:41:31.314Z,20.66
2018-12-09T10:42:31.399Z,20.65
2018-12-09T10:43:31.390Z,20.66
2018-12-09T10:44:31.664Z,20.66
2018-12-09T10:45:31.259Z,20.66
2018-12-09T10:46:31.378Z,20.65
2018-12-09T10:47:31.233Z,20.66
2018-12-09T10:48:31.206Z,20.66
2018-12-09T10:49:31.439Z,20.66
2018-12-09T10:50:31.278Z,20.67
2018-12-09T10:51:31.434Z,20.65
2018-12-09T10:52:31.506Z,20.65
2018-12-09T10:53:31.828Z,20.67
2018-12-09T10:54:31.345Z,20.68
2018-12-09T10:55:31.402Z,20.68
2018-12-09T10:56:31.861Z,20.71
2018-12-09T10:57:31.236Z,20.79
2018-12-09T10:58:31.387Z,20.77
2018-12-09T10:59:31.242Z,20.77
2018-12-09T11:00:31.384Z,20.77
2018-12-09T11:01:31.692Z,20.75
2018-12-09T11:02:31.654Z,20.74
2018-12-09T11:03:31.546Z,20.73
2018-12-09T11:04:31.310Z,20.73
2018-12-09T11:05:31.681Z,20.73
2018-12-09T11:06:31.264Z,20.73
2018-12-09T11:07:31.409Z,20.73
2018-12-09T11:08:31.341Z,20.73
2018-12-09T11:09:31.648Z,20.74
2018-12-09T11:10:31.639Z,20.75
2018-12-09T11:11:31.380Z,20.73
2018-12-09T11:12:31.890Z,20.73
2018-12-09T11:13:31.738Z,20.74
2018-12-09T11:14:31.484Z,20.74
2018-12-09T11:15:31.896Z,20.73
2018-12-09T11:16:31.877Z,20.75
2018-12-09T11:17:31.247Z,20.74
2018-12-09T11:18:31.324Z,20.73
2018-12-09T11:19:31.814Z,20.74
2018-12-09T11:20:31.565Z,20.75
2018-12-09T11:21:31.624Z,20.74
2018-12-09T11:22:31.368Z,20.72
2018-12-09T11:23:31.713Z,20.72
2018-12-09T11:24:31.478Z,20.73
2018-12-09T11:25:31.398Z,20.72
2018-12-09T11:26:31.320Z,20.71
2018-12-09T11:27:31.254Z,20.71
2018-12-09T11:28:31.490Z,20.7
2018-12-09T11:29:31.285Z,20.71
2018-12-09T11:30:31.707Z,20.71
2018-12-09T11:31:31.350Z,20.7
2018-12-09T11:32:32.171Z,20.69
2018-12-09T11:33:31.451Z,20.69
2018-12-09T11:34:31.786Z,20.69
2018-12-09T11:35:31.181Z,20.68
2018-12-09T11:36:31.404Z,20.69
2018-12-09T11:37:31.897Z,20.7
2018-12-09T11:38:31.590Z,20.69
2018-12-09T11:39:31.430Z,20.65
2018-12-09T11:40:31.329Z,20.66
2018-12-09T11:41:31.803Z,20.66
2018-12-09T11:42:31.284Z,20.66
2018-12-09T11:43:31.718Z,20.67
2018-12-09T11:44:31.447Z,20.67
2018-12-09T11:45:31.241Z,20.67
2018-12-09T11:46:31.519Z,20.67
2018-12-09T11:47:31.512Z,20.68
2018-12-09T11:48:31.768Z,20.68
2018-12-09T11:49:31.555Z,20.68
2018-12-09T11:50:31.805Z,20.7
2018-12-09T11:51:31.514Z,20.7
2018-12-09T11:52:31.459Z,20.7
2018-12-09T11:53:31.314Z,20.69
2018-12-09T11:54:31.796Z,20.7
2018-12-09T11:55:31.634Z,20.7
2018-12-09T11:56:31.283Z,20.7
2018-12-09T11:57:31.498Z,20.7
2018-12-09T11:58:31.354Z,20.7
2018-12-09T11:59:31.768Z,20.7
2018-12-09T12:00:31.186Z,20.71
2018-12-09T12:01:31.351Z,20.71
2018-12-09T12:02:31.384Z,20.69
2018-12-09T12:03:31.265Z,20.7
2018-12-09T12:04:31.633Z,20.71
2018-12-09T12:05:31.503Z,20.71
2018-12-09T12:06:31.622Z,20.7
2018-12-09T12:07:31.300Z,20.71
2018-12-09T12:08:31.727Z,20.71
2018-12-09T12:09:32.215Z,20.7
2018-12-09T12:10:31.345Z,20.71
2018-12-09T12:11:31.160Z,20.71
2018-12-09T12:12:31.505Z,20.71
2018-12-09T12:13:31.273Z,20.71
2018-12-09T12:14:31.625Z,20.7
2018-12-09T12:15:31.492Z,20.7
2018-12-09T12:16:31.313Z,20.71
2018-12-09T12:17:31.339Z,20.71
2018-12-09T12:18:31.165Z,20.71
2018-12-09T12:19:31.361Z,20.69
2018-12-09T12:20:31.165Z,20.71
2018-12-09T12:21:31.244Z,20.72
2018-12-09T12:22:31.949Z,20.72
2018-12-09T12:23:31.283Z,20.75
2018-12-09T12:24:31.331Z,20.75
2018-12-09T12:25:31.191Z,20.75
2018-12-09T12:26:31.531Z,20.74
2018-12-09T12:27:31.396Z,20.74
2018-12-09T12:28:31.363Z,20.74
2018-12-09T12:29:31.389Z,20.74
2018-12-09T12:30:31.515Z,20.73
2018-12-09T12:31:31.583Z,20.73
2018-12-09T12:32:31.179Z,20.72
2018-12-09T12:33:31.342Z,20.74
2018-12-09T12:34:31.510Z,20.72
2018-12-09T12:35:31.396Z,20.71
2018-12-09T12:36:31.907Z,20.71
2018-12-09T12:37:31.214Z,20.71
2018-12-09T12:38:31.367Z,20.7
2018-12-09T12:39:31.213Z,20.7
2018-12-09T12:40:31.543Z,20.7
2018-12-09T12:41:32.129Z,20.69
2018-12-09T12:42:31.437Z,20.67
2018-12-09T12:43:31.791Z,20.68
2018-12-09T12:44:31.238Z,20.67
2018-12-09T12:45:31.431Z,20.67
2018-12-09T12:46:31.205Z,20.66
2018-12-09T12:47:31.329Z,20.65
2018-12-09T12:48:31.755Z,20.65
2018-12-09T12:49:31.282Z,20.65
2018-12-09T12:50:31.478Z,20.65
2018-12-09T12:51:32.139Z,20.64
2018-12-09T12:52:31.460Z,20.64
2018-12-09T12:53:31.729Z,20.64
2018-12-09T12:54:31.424Z,20.63
2018-12-09T12:55:31.538Z,20.63
2018-12-09T12:56:31.363Z,20.64